createdAt,value
2018-09-10T00:02:15.079Z,23.60
2018-09-10T00:04:46.810Z,27.00
2018-09-10T00:07:18.747Z,21.80
2018-09-10T00:09:50.755Z,24.60
2018-09-10T00:12:22.163Z,26.00
2018-09-10T00:14:54.097Z,26.40
2018-09-10T00:17:25.735Z,23.60
2018-09-10T00:19:57.723Z,25.00
2018-09-10T00:22:29.220Z,23.80
2018-09-10T00:25:01.471Z,25.80
2018-09-10T00:27:33.177Z,24.80
2018-09-10T00:30:05.152Z,21.20
2018-09-10T00:32:36.806Z,23.80
2018-09-10T00:35:08.551Z,26.60
2018-09-10T00:37:40.404Z,22.20
2018-09-10T00:40:12.282Z,28.80
2018-09-10T00:42:43.890Z,23.20
2018-09-10T00:45:15.727Z,25.20
2018-09-10T00:47:47.347Z,29.40
2018-09-10T00:50:19.026Z,24.00
2018-09-10T00:52:50.786Z,24.60
2018-09-10T00:55:22.628Z,25.00
2018-09-10T00:57:54.271Z,26.40
2018-09-10T01:00:26.043Z,22.80
2018-09-10T01:02:58.574Z,30.40
2018-09-10T01:05:30.481Z,28.20
2018-09-10T01:08:01.974Z,24.80
2018-09-10T01:10:33.845Z,25.80
2018-09-10T01:13:05.584Z,28.00
2018-09-10T01:15:37.600Z,23.80
2018-09-10T01:18:09.509Z,25.80
2018-09-10T01:20:41.458Z,29.40
2018-09-10T01:23:13.248Z,30.40
2018-09-10T01:25:45.448Z,28.40
2018-09-10T01:28:17.092Z,30.00
2018-09-10T01:30:48.780Z,31.80
2018-09-10T01:34:49.220Z,29.80
2018-09-10T01:37:21.237Z,30.80
2018-09-10T01:39:52.838Z,31.40
2018-09-10T01:42:24.563Z,30.80
2018-09-10T01:44:56.117Z,34.00
2018-09-10T01:47:28.020Z,33.40
2018-09-10T01:49:59.713Z,33.20
2018-09-10T01:52:31.649Z,30.60
2018-09-10T01:55:03.178Z,31.60
2018-09-10T01:57:35.021Z,30.00
2018-09-10T02:00:06.888Z,41.60
2018-09-10T02:02:38.614Z,40.60
2018-09-10T02:05:10.348Z,43.20
2018-09-10T02:07:42.193Z,39.40
2018-09-10T02:10:13.863Z,41.20
2018-09-10T02:12:45.679Z,42.80
2018-09-10T02:15:17.100Z,44.00
2018-09-10T02:17:48.860Z,45.60
2018-09-10T02:20:21.586Z,41.40
2018-09-10T02:22:53.499Z,48.80
2018-09-10T02:25:25.132Z,47.00
2018-09-10T02:27:56.962Z,48.60
2018-09-10T02:30:28.659Z,47.80
2018-09-10T02:33:00.444Z,46.80
2018-09-10T02:35:32.044Z,47.80
2018-09-10T02:38:04.172Z,45.80
2018-09-10T02:40:35.821Z,41.80
2018-09-10T02:43:07.667Z,45.20
2018-09-10T02:45:39.334Z,46.40
2018-09-10T02:48:10.950Z,41.80
2018-09-10T02:50:42.693Z,46.40
2018-09-10T02:53:14.480Z,47.20
2018-09-10T02:55:45.980Z,45.80
2018-09-10T02:58:18.143Z,45.20
2018-09-10T03:00:49.994Z,44.00
2018-09-10T03:03:22.125Z,44.60
2018-09-10T03:05:54.756Z,39.60
2018-09-10T03:08:26.759Z,41.00
2018-09-10T03:10:58.484Z,43.60
2018-09-10T03:13:30.271Z,46.00
2018-09-10T03:16:01.964Z,44.60
2018-09-10T03:18:33.647Z,44.40
2018-09-10T03:21:06.151Z,47.80
2018-09-10T03:23:37.956Z,45.60
2018-09-10T03:26:10.492Z,42.40
2018-09-10T03:28:42.347Z,48.80
2018-09-10T03:31:13.732Z,45.00
2018-09-10T03:33:45.225Z,50.20
2018-09-10T03:36:16.999Z,46.40
2018-09-10T03:38:48.618Z,46.40
2018-09-10T03:41:20.285Z,46.20
2018-09-10T03:43:52.073Z,44.40
2018-09-10T03:46:23.786Z,46.60
2018-09-10T03:48:55.630Z,50.00
2018-09-10T03:51:27.309Z,47.80
2018-09-10T03:53:59.191Z,45.20
2018-09-10T03:56:30.907Z,47.80
2018-09-10T03:59:02.659Z,46.00
2018-09-10T04:01:34.580Z,48.20
2018-09-10T04:04:06.366Z,48.00
2018-09-10T04:06:38.127Z,43.60
2018-09-10T04:09:10.649Z,47.60
2018-09-10T04:11:42.343Z,47.20
2018-09-10T04:14:14.439Z,45.60
2018-09-10T04:16:45.877Z,46.00
2018-09-10T04:19:17.920Z,45.80
2018-09-10T04:21:49.734Z,51.60
2018-09-10T04:24:21.555Z,48.20
2018-09-10T04:26:53.187Z,47.60
2018-09-10T04:29:25.017Z,48.20
2018-09-10T04:31:56.661Z,45.60
2018-09-10T04:34:28.489Z,49.20
2018-09-10T04:37:00.155Z,46.80
2018-09-10T04:39:32.008Z,44.40
2018-09-10T04:42:05.569Z,48.40
2018-09-10T04:44:37.428Z,46.20
2018-09-10T04:47:10.001Z,47.20
2018-09-10T04:49:41.896Z,44.00
2018-09-10T04:52:13.387Z,45.80
2018-09-10T04:54:45.402Z,44.20
2018-09-10T04:57:17.092Z,46.80
2018-09-10T04:59:48.965Z,45.00
2018-09-10T05:02:20.793Z,45.20
2018-09-10T05:04:52.363Z,43.60
2018-09-10T05:07:24.090Z,46.80
2018-09-10T05:09:55.838Z,45.80
2018-09-10T05:12:27.654Z,46.80
2018-09-10T05:14:59.533Z,49.00
2018-09-10T05:17:31.171Z,44.40
2018-09-10T05:20:03.353Z,46.00
2018-09-10T05:22:35.183Z,46.20
2018-09-10T05:25:07.048Z,47.00
2018-09-10T05:27:38.634Z,48.20
2018-09-10T05:30:10.403Z,47.40
2018-09-10T05:32:41.969Z,46.40
2018-09-10T05:35:14.467Z,44.20
2018-09-10T05:37:46.254Z,47.80
2018-09-10T05:40:18.162Z,47.80
2018-09-10T05:42:50.086Z,49.60
2018-09-10T05:45:22.079Z,48.40
2018-09-10T05:47:53.712Z,44.20
2018-09-10T05:50:25.890Z,47.20
2018-09-10T05:52:57.879Z,50.00
2018-09-10T05:55:29.759Z,48.00
2018-09-10T05:58:01.653Z,49.00
2018-09-10T06:00:35.410Z,49.00
2018-09-10T06:03:07.284Z,49.80
2018-09-10T06:05:39.729Z,50.00
2018-09-10T06:08:12.230Z,49.20
2018-09-10T06:10:44.227Z,47.60
2018-09-10T06:13:15.986Z,47.20
2018-09-10T06:15:48.054Z,44.60
2018-09-10T06:18:20.050Z,47.60
2018-09-10T06:20:51.809Z,52.20
2018-09-10T06:23:23.741Z,51.60
2018-09-10T06:25:55.355Z,48.00
2018-09-10T06:28:27.440Z,48.60
2018-09-10T06:30:59.317Z,50.00
2018-09-10T06:33:32.274Z,50.40
2018-09-10T06:36:04.030Z,48.00
2018-09-10T06:38:44.354Z,49.00
2018-09-10T06:44:32.268Z,43.00
2018-09-10T06:47:20.188Z,47.00
2018-09-10T06:50:08.532Z,50.00
2018-09-10T06:52:45.764Z,48.20
2018-09-10T06:55:20.491Z,45.60
2018-09-10T06:57:57.378Z,51.80
2018-09-10T07:00:41.666Z,49.40
2018-09-10T07:03:17.388Z,48.40
2018-09-10T07:06:01.649Z,48.40
2018-09-10T07:08:52.272Z,49.20
2018-09-10T07:11:36.529Z,47.80
2018-09-10T07:14:13.255Z,48.20
2018-09-10T07:17:07.513Z,48.40
2018-09-10T07:19:49.824Z,49.20
2018-09-10T07:22:29.342Z,50.80
2018-09-10T07:25:27.094Z,50.80
2018-09-10T07:27:58.973Z,50.80
2018-09-10T07:30:30.679Z,49.80
2018-09-10T07:33:02.637Z,49.40
2018-09-10T07:35:34.759Z,50.60
2018-09-10T07:38:06.778Z,48.40
2018-09-10T07:40:38.550Z,51.00
2018-09-10T07:43:10.297Z,49.20
2018-09-10T07:45:42.345Z,49.80
2018-09-10T07:48:14.004Z,51.20
2018-09-10T07:50:45.989Z,48.00
2018-09-10T07:53:17.834Z,49.00
2018-09-10T07:55:51.218Z,47.80
2018-09-10T07:58:23.741Z,49.40
2018-09-10T08:00:57.391Z,49.00
2018-09-10T08:03:29.393Z,48.80
2018-09-10T08:06:02.177Z,46.80
2018-09-10T08:08:34.756Z,48.00
2018-09-10T08:11:07.796Z,45.60
2018-09-10T08:13:41.011Z,47.80
2018-09-10T08:16:13.142Z,49.80
2018-09-10T08:18:44.942Z,47.20
2018-09-10T08:21:16.790Z,44.40
2018-09-10T08:23:49.099Z,48.00
2018-09-10T08:26:20.848Z,47.60
2018-09-10T08:28:52.718Z,49.00
2018-09-10T08:31:24.904Z,42.60
2018-09-10T08:33:57.052Z,48.00
2018-09-10T08:36:32.146Z,48.80
2018-09-10T08:39:04.783Z,47.20
2018-09-10T08:41:36.153Z,43.40
2018-09-10T08:44:08.618Z,44.80
2018-09-10T08:46:40.817Z,46.40
2018-09-10T08:49:12.860Z,48.60
2018-09-10T08:51:44.725Z,48.20
2018-09-10T08:54:17.625Z,48.40
2018-09-10T08:56:50.852Z,49.60
2018-09-10T08:59:24.475Z,47.20
2018-09-10T09:01:56.663Z,47.00
2018-09-10T09:04:28.696Z,42.40
2018-09-10T09:07:00.821Z,45.00
2018-09-10T09:09:32.495Z,42.20
2018-09-10T09:12:04.483Z,40.60
2018-09-10T09:14:36.243Z,44.00
2018-09-10T09:17:08.326Z,43.20
2018-09-10T09:19:40.184Z,42.40
2018-09-10T09:22:12.366Z,37.20
2018-09-10T09:24:44.653Z,42.00
2018-09-10T09:27:17.979Z,41.40
2018-09-10T09:29:51.149Z,41.80
2018-09-10T09:32:23.957Z,43.40
2018-09-10T09:34:56.982Z,40.80
2018-09-10T09:37:33.583Z,37.80
2018-09-10T09:40:10.366Z,44.60
2018-09-10T09:42:48.083Z,44.00
2018-09-10T09:45:25.716Z,43.60
2018-09-10T09:47:58.727Z,44.00
2018-09-10T09:50:31.180Z,43.20
2018-09-10T09:53:03.173Z,42.40
2018-09-10T09:55:35.270Z,44.60
2018-09-10T09:58:07.254Z,42.00
2018-09-10T10:00:43.853Z,43.20
2018-09-10T10:03:19.751Z,42.20
2018-09-10T10:05:52.034Z,41.00
2018-09-10T10:08:23.904Z,42.00
2018-09-10T10:10:55.767Z,43.60
2018-09-10T10:13:27.409Z,42.80
2018-09-10T10:15:59.271Z,44.60
2018-09-10T10:18:31.083Z,46.20
2018-09-10T10:21:03.214Z,44.40
2018-09-10T10:23:35.017Z,37.20
2018-09-10T10:26:07.787Z,45.40
2018-09-10T10:28:39.809Z,39.80
2018-09-10T10:31:12.778Z,41.60
2018-09-10T10:33:52.342Z,39.20
2018-09-10T10:36:24.693Z,39.80
2018-09-10T10:38:56.233Z,37.20
2018-09-10T10:41:28.152Z,40.60
2018-09-10T10:44:00.627Z,39.80
2018-09-10T10:46:33.206Z,38.80
2018-09-10T10:49:05.292Z,35.20
2018-09-10T10:51:36.974Z,40.20
2018-09-10T10:54:08.841Z,37.00
2018-09-10T10:56:41.617Z,37.60
2018-09-10T10:59:14.698Z,39.00
2018-09-10T11:01:47.322Z,38.00
2018-09-10T11:04:18.901Z,42.00
2018-09-10T11:06:51.199Z,40.60
2018-09-10T11:09:23.158Z,44.40
2018-09-10T11:11:55.237Z,42.00
2018-09-10T11:14:27.360Z,41.40
2018-09-10T11:16:59.637Z,45.20
2018-09-10T11:19:31.482Z,44.00
2018-09-10T11:22:03.728Z,41.00
2018-09-10T11:24:36.888Z,40.80
2018-09-10T11:27:08.733Z,44.80
2018-09-10T11:29:40.568Z,42.20
2018-09-10T11:32:12.826Z,43.00
2018-09-10T11:34:44.972Z,41.40
2018-09-10T11:37:16.615Z,41.60
2018-09-10T11:39:48.478Z,40.20
2018-09-10T11:42:20.519Z,43.00
2018-09-10T11:44:52.238Z,39.40
2018-09-10T11:47:24.138Z,39.20
2018-09-10T11:49:55.871Z,40.40
2018-09-10T11:52:27.961Z,33.60
2018-09-10T11:54:59.891Z,39.40
2018-09-10T11:57:32.076Z,37.00
2018-09-10T12:00:03.823Z,42.40
2018-09-10T12:02:35.690Z,39.80
2018-09-10T12:05:07.674Z,43.20
2018-09-10T12:07:39.721Z,38.40
2018-09-10T12:10:11.425Z,43.40
2018-09-10T12:12:43.400Z,43.60
2018-09-10T12:15:15.329Z,42.00
2018-09-10T12:17:47.052Z,45.00
2018-09-10T12:20:18.842Z,40.40
2018-09-10T12:22:50.678Z,42.20
2018-09-10T12:25:22.849Z,45.00
2018-09-10T12:27:54.813Z,43.00
2018-09-10T12:30:26.650Z,44.60
2018-09-10T12:32:58.510Z,41.00
2018-09-10T12:35:30.411Z,42.80
2018-09-10T12:38:02.432Z,44.40
2018-09-10T12:40:34.635Z,44.80
2018-09-10T12:43:06.395Z,41.80
2018-09-10T12:45:38.642Z,43.20
2018-09-10T12:48:11.047Z,42.00
2018-09-10T12:50:43.037Z,44.00
2018-09-10T12:53:15.213Z,47.80
2018-09-10T12:55:46.895Z,44.00
2018-09-10T12:58:18.683Z,49.00
2018-09-10T13:00:52.222Z,52.20
2018-09-10T13:03:24.647Z,50.00
2018-09-10T13:05:56.403Z,47.60
2018-09-10T13:08:28.255Z,46.20
2018-09-10T13:10:59.754Z,46.00
2018-09-10T13:13:31.883Z,44.80
2018-09-10T13:16:04.618Z,43.40
2018-09-10T13:18:36.630Z,49.60
2018-09-10T13:21:08.281Z,49.40
2018-09-10T13:23:41.197Z,44.00
2018-09-10T13:26:14.134Z,46.60
2018-09-10T13:28:47.001Z,49.40
2018-09-10T13:31:18.806Z,48.00
2018-09-10T13:33:50.733Z,46.60
2018-09-10T13:36:23.126Z,49.00
2018-09-10T13:38:55.204Z,53.40
2018-09-10T13:41:27.942Z,52.40
2018-09-10T13:43:59.762Z,50.60
2018-09-10T13:46:31.960Z,49.40
2018-09-10T13:49:04.378Z,51.40
2018-09-10T13:51:36.143Z,49.40
2018-09-10T13:54:08.198Z,49.20
2018-09-10T13:56:41.203Z,50.80
2018-09-10T13:59:13.081Z,51.20
2018-09-10T14:01:45.294Z,46.20
2018-09-10T14:04:17.792Z,50.00
2018-09-10T14:06:49.657Z,48.00
2018-09-10T14:09:22.482Z,51.00
2018-09-10T14:11:54.558Z,49.00
2018-09-10T14:14:26.484Z,50.40
2018-09-10T14:16:58.504Z,49.60
2018-09-10T14:19:30.529Z,49.00
2018-09-10T14:22:02.744Z,50.40
2018-09-10T14:24:34.840Z,50.20
2018-09-10T14:27:06.621Z,52.40
2018-09-10T14:29:39.097Z,49.00
2018-09-10T14:32:11.191Z,50.80
2018-09-10T14:34:43.059Z,52.60
2018-09-10T14:37:15.226Z,52.60
2018-09-10T14:39:47.164Z,51.20
2018-09-10T14:42:19.075Z,50.20
2018-09-10T14:44:50.647Z,53.00
2018-09-10T14:47:22.469Z,49.20
2018-09-10T14:49:54.837Z,51.20
2018-09-10T14:52:26.606Z,49.20
2018-09-10T14:55:01.179Z,51.80
2018-09-10T14:57:33.120Z,52.80
2018-09-10T15:00:05.054Z,49.20
2018-09-10T15:02:36.624Z,49.80
2018-09-10T15:05:08.590Z,51.20
2018-09-10T15:07:40.178Z,49.40
2018-09-10T15:10:12.134Z,50.20
2018-09-10T15:12:43.910Z,48.80
2018-09-10T15:15:16.012Z,47.60
2018-09-10T15:17:47.925Z,50.20
2018-09-10T15:20:19.917Z,49.00
2018-09-10T15:22:51.926Z,51.60
2018-09-10T15:25:23.667Z,52.60
2018-09-10T15:27:55.431Z,52.20
2018-09-10T15:30:27.146Z,45.20
2018-09-10T15:32:58.895Z,53.00
2018-09-10T15:35:30.746Z,51.60
2018-09-10T15:38:02.578Z,50.40
2018-09-10T15:40:34.533Z,49.00
2018-09-10T15:43:06.367Z,49.20
2018-09-10T15:45:38.147Z,49.00
2018-09-10T15:48:09.897Z,50.20
2018-09-10T15:50:42.147Z,46.40
2018-09-10T15:53:14.018Z,44.00
2018-09-10T15:55:45.765Z,46.40
2018-09-10T15:58:17.514Z,44.00
2018-09-10T16:00:49.036Z,47.00
2018-09-10T16:03:21.881Z,43.20
2018-09-10T16:05:53.733Z,46.40
2018-09-10T16:08:25.420Z,44.20
2018-09-10T16:10:57.366Z,44.40
2018-09-10T16:13:29.052Z,43.00
2018-09-10T16:16:00.839Z,43.40
2018-09-10T16:18:32.479Z,44.40
2018-09-10T16:21:04.447Z,42.60
2018-09-10T16:23:36.337Z,42.80
2018-09-10T16:26:08.464Z,44.60
2018-09-10T16:28:40.359Z,44.20
2018-09-10T16:31:13.371Z,43.20
2018-09-10T16:33:45.264Z,43.40
2018-09-10T16:36:17.985Z,41.40
2018-09-10T16:38:50.942Z,44.60
2018-09-10T16:41:22.900Z,43.20
2018-09-10T16:43:54.930Z,43.20
2018-09-10T16:46:26.942Z,43.40
2018-09-10T16:48:58.975Z,42.80
2018-09-10T16:51:31.260Z,38.60
2018-09-10T16:54:03.790Z,42.00
2018-09-10T16:56:35.830Z,39.00
2018-09-10T16:59:07.788Z,38.80
2018-09-10T17:01:40.852Z,42.20
2018-09-10T17:04:12.696Z,37.80
2018-09-10T17:06:48.789Z,40.60
2018-09-10T17:09:21.207Z,39.40
2018-09-10T17:11:53.691Z,35.40
2018-09-10T17:14:25.986Z,40.80
2018-09-10T17:16:58.121Z,40.00
2018-09-10T17:19:29.851Z,40.40
2018-09-10T17:22:01.878Z,37.00
2018-09-10T17:24:33.927Z,38.20
2018-09-10T17:27:05.935Z,40.00
2018-09-10T17:29:37.837Z,39.60
2018-09-10T17:32:09.851Z,38.20
2018-09-10T17:34:42.162Z,38.60
2018-09-10T17:37:14.082Z,37.00
2018-09-10T17:39:46.734Z,36.20
2018-09-10T17:42:18.660Z,37.60
2018-09-10T17:44:51.356Z,35.00
2018-09-10T17:47:23.628Z,35.80
2018-09-10T17:49:55.934Z,37.00
2018-09-10T17:52:27.795Z,34.80
2018-09-10T17:54:59.605Z,32.60
2018-09-10T17:57:32.830Z,35.60
2018-09-10T18:00:04.589Z,35.60
2018-09-10T18:02:36.443Z,31.00
2018-09-10T18:05:08.173Z,34.60
2018-09-10T18:07:40.144Z,35.00
2018-09-10T18:10:12.202Z,35.00
2018-09-10T18:12:43.846Z,33.20
2018-09-10T18:15:15.678Z,35.80
2018-09-10T18:17:47.804Z,31.00
2018-09-10T18:20:19.434Z,34.60
2018-09-10T18:22:51.495Z,34.80
2018-09-10T18:25:23.475Z,34.00
2018-09-10T18:27:55.457Z,34.00
2018-09-10T18:30:30.612Z,32.00
2018-09-10T18:33:03.150Z,37.00
2018-09-10T18:35:35.007Z,32.20
2018-09-10T18:38:06.945Z,34.80
2018-09-10T18:40:38.873Z,34.80
2018-09-10T18:43:10.957Z,35.20
2018-09-10T18:45:43.660Z,32.60
2018-09-10T18:48:15.874Z,37.40
2018-09-10T18:50:48.838Z,34.60
2018-09-10T18:53:21.908Z,34.00
2018-09-10T18:55:53.594Z,33.80
2018-09-10T18:58:25.818Z,31.20
2018-09-10T19:00:57.961Z,35.60
2018-09-10T19:03:29.892Z,35.00
2018-09-10T19:06:01.685Z,34.00
2018-09-10T19:08:33.599Z,34.60
2018-09-10T19:11:05.495Z,31.40
2018-09-10T19:13:37.227Z,32.80
2018-09-10T19:16:09.198Z,32.00
2018-09-10T19:18:42.237Z,31.40
2018-09-10T19:21:13.980Z,31.20
2018-09-10T19:23:45.820Z,30.80
2018-09-10T19:26:17.569Z,33.80
2018-09-10T19:28:49.515Z,33.80
2018-09-10T19:31:21.401Z,28.80
2018-09-10T19:33:53.309Z,30.80
2018-09-10T19:36:25.184Z,34.20
2018-09-10T19:38:57.124Z,31.40
2018-09-10T19:41:29.060Z,33.40
2018-09-10T19:44:01.360Z,31.60
2018-09-10T19:46:33.273Z,29.80
2018-09-10T19:49:06.356Z,31.40
2018-09-10T19:51:38.035Z,31.00
2018-09-10T19:54:10.075Z,34.00
2018-09-10T19:56:41.992Z,31.00
2018-09-10T19:59:13.818Z,31.40
2018-09-10T20:01:46.372Z,29.60
2018-09-10T20:04:18.212Z,28.00
2018-09-10T20:06:50.246Z,31.40
2018-09-10T20:09:21.845Z,28.40
2018-09-10T20:11:53.606Z,27.60
2018-09-10T20:14:25.401Z,31.40
2018-09-10T20:16:57.099Z,31.00
2018-09-10T20:19:29.005Z,32.00
2018-09-10T20:22:00.787Z,24.00
2018-09-10T20:24:32.430Z,31.00
2018-09-10T20:27:04.130Z,33.40
2018-09-10T20:29:35.798Z,28.80
2018-09-10T20:32:07.835Z,29.00
2018-09-10T20:34:39.694Z,33.60
2018-09-10T20:37:11.341Z,31.00
2018-09-10T20:39:43.291Z,29.20
2018-09-10T20:42:15.314Z,28.00
2018-09-10T20:44:47.079Z,31.60
2018-09-10T20:47:18.845Z,28.40
2018-09-10T20:49:51.057Z,28.20
2018-09-10T20:52:22.757Z,32.20
2018-09-10T20:54:54.786Z,29.80
2018-09-10T20:57:26.939Z,33.60
2018-09-10T20:59:58.924Z,32.00
2018-09-10T21:02:30.813Z,33.20
2018-09-10T21:05:04.128Z,28.40
2018-09-10T21:07:36.065Z,31.60
2018-09-10T21:10:08.170Z,32.40
2018-09-10T21:12:39.963Z,28.80
2018-09-10T21:15:12.079Z,31.60
2018-09-10T21:17:43.936Z,27.00
2018-09-10T21:20:15.732Z,29.80
2018-09-10T21:22:47.764Z,29.80
2018-09-10T21:25:19.465Z,30.00
2018-09-10T21:27:51.188Z,32.20
2018-09-10T21:30:23.155Z,24.40
2018-09-10T21:32:54.964Z,30.00
2018-09-10T21:35:26.566Z,26.20
2018-09-10T21:37:58.682Z,34.80
2018-09-10T21:40:30.344Z,30.40
2018-09-10T21:43:02.148Z,33.80
2018-09-10T21:45:34.202Z,30.60
2018-09-10T21:48:05.794Z,26.40
2018-09-10T21:50:38.489Z,32.80
2018-09-10T21:53:10.002Z,32.20
2018-09-10T21:55:41.957Z,27.40
2018-09-10T21:58:13.761Z,28.20
2018-09-10T22:00:50.932Z,30.00
2018-09-10T22:03:22.624Z,30.00
2018-09-10T22:05:54.991Z,28.40
2018-09-10T22:08:26.830Z,33.80
2018-09-10T22:10:58.783Z,31.40
2018-09-10T22:13:30.684Z,33.40
2018-09-10T22:16:02.478Z,32.40
2018-09-10T22:18:34.267Z,33.40
2018-09-10T22:21:06.229Z,30.40
2018-09-10T22:23:38.095Z,32.00
2018-09-10T22:26:09.832Z,31.20
2018-09-10T22:28:41.518Z,32.80
2018-09-10T22:31:13.404Z,29.60
2018-09-10T22:33:45.465Z,30.40
2018-09-10T22:36:17.399Z,29.60
2018-09-10T22:38:49.050Z,31.80
2018-09-10T22:41:20.838Z,28.60
2018-09-10T22:43:52.352Z,30.80
2018-09-10T22:46:24.430Z,32.00
2018-09-10T22:48:56.156Z,32.20
2018-09-10T22:51:28.395Z,32.60
2018-09-10T22:54:00.074Z,31.80
2018-09-10T22:56:31.929Z,27.40
2018-09-10T22:59:03.802Z,29.00
2018-09-10T23:01:35.749Z,31.60
2018-09-10T23:04:07.562Z,28.80
2018-09-10T23:06:39.127Z,31.60
2018-09-10T23:09:11.116Z,28.20
2018-09-10T23:11:43.145Z,32.00
2018-09-10T23:14:14.701Z,29.20
2018-09-10T23:16:46.718Z,30.60
2018-09-10T23:19:18.515Z,32.00
2018-09-10T23:21:50.312Z,32.00
2018-09-10T23:24:22.218Z,32.20
2018-09-10T23:26:54.380Z,31.40
2018-09-10T23:29:26.253Z,33.80
2018-09-10T23:31:58.205Z,32.20
2018-09-10T23:34:30.045Z,26.20
2018-09-10T23:37:01.991Z,32.00
2018-09-10T23:39:33.769Z,29.60
2018-09-10T23:42:05.620Z,33.60
2018-09-10T23:44:37.631Z,31.40
2018-09-10T23:47:09.526Z,34.80
2018-09-10T23:49:41.244Z,31.60
2018-09-10T23:52:14.240Z,33.40
2018-09-10T23:54:45.868Z,33.40
2018-09-10T23:57:17.720Z,32.80
2018-09-10T23:59:49.437Z,34.40
